Time;durP1;ratioP1;P1;durP2;ratioP2;P2;SDS_P1;SDS_P2;PMS_P1;PMS_P2;Temp;Humidity;BMP_temperature;BMP_pressure;BME280_temperature;BME280_humidity;BME280_pressure;Samples;Min_cycle;Max_cycle;Signal;HPM_P1;HPM_P2
2022/05/15 00:01:40;;;;;;;4.05;2.08;;;;;;;;;;4381666;32;20504;-69
2022/05/15 00:04:07;;;;;;;4.45;2.10;;;;;;;;;;4391966;32;20533;-69
2022/05/15 00:06:34;;;;;;;4.25;2.00;;;;;;;;;;4380061;32;20069;-68
2022/05/15 00:09:01;;;;;;;3.83;2.03;;;;;;;;;;4391960;32;20086;-68
2022/05/15 00:11:27;;;;;;;5.78;1.98;;;;;;;;;;4406437;32;20061;-67
2022/05/15 00:13:55;;;;;;;5.60;2.45;;;;;;;;;;4391980;32;20155;-66
2022/05/15 00:16:23;;;;;;;3.35;2.20;;;;;;;;;;4392161;32;20168;-68
2022/05/15 00:18:50;;;;;;;3.20;2.10;;;;;;;;;;4391710;32;20459;-68
2022/05/15 00:21:18;;;;;;;3.08;2.20;;;;;;;;;;4380214;32;20168;-69
2022/05/15 00:23:45;;;;;;;4.93;2.28;;;;;;;;;;4393307;32;20081;-68
2022/05/15 00:26:11;;;;;;;3.37;2.10;;;;;;;;;;4380871;32;20077;-67
2022/05/15 00:28:38;;;;;;;5.75;2.20;;;;;;;;;;4395596;32;20077;-69
2022/05/15 00:31:05;;;;;;;3.37;2.03;;;;;;;;;;4395183;32;20100;-67
2022/05/15 00:33:32;;;;;;;3.90;2.10;;;;;;;;;;4395049;32;20073;-67
2022/05/15 00:35:59;;;;;;;5.12;1.85;;;;;;;;;;4370225;32;20085;-67
2022/05/15 00:38:26;;;;;;;3.83;2.35;;;;;;;;;;4382952;32;20495;-68
2022/05/15 00:43:09;;;;;;;3.37;2.13;;;;;;;;;;3834494;37;20462;-68
2022/05/15 00:45:36;;;;;;;3.08;2.05;;;;;;;;;;4378315;32;20075;-67
2022/05/15 00:48:03;;;;;;;4.18;2.10;;;;;;;;;;4378052;32;20165;-69
2022/05/15 00:50:31;;;;;;;4.22;2.20;;;;;;;;;;4390700;32;20087;-69
2022/05/15 00:53:03;;;;;;;3.17;2.20;;;;;;;;;;4378087;32;20562;-68
2022/05/15 00:55:45;;;;;;;3.95;2.30;;;;;;;;;;4390914;32;20153;-69
2022/05/15 00:58:28;;;;;;;4.60;2.70;;;;;;;;;;4377759;32;20078;-69
2022/05/15 01:00:55;;;;;;;4.03;2.20;;;;;;;;;;4390347;32;20073;-69
2022/05/15 01:03:22;;;;;;;4.30;2.35;;;;;;;;;;4390185;32;20508;-69
2022/05/15 01:05:51;;;;;;;4.30;2.00;;;;;;;;;;4404530;32;20069;-69
2022/05/15 01:08:18;;;;;;;2.80;2.20;;;;;;;;;;4390667;32;20073;-67
2022/05/15 01:10:50;;;;;;;5.03;2.00;;;;;;;;;;4390259;32;20093;-69
2022/05/15 01:13:19;;;;;;;3.20;1.90;;;;;;;;;;4390145;32;20084;-67
2022/05/15 01:15:47;;;;;;;4.07;2.17;;;;;;;;;;4389775;32;20165;-69
2022/05/15 01:18:20;;;;;;;4.53;2.17;;;;;;;;;;4378067;32;20070;-67
2022/05/15 01:20:47;;;;;;;4.07;1.92;;;;;;;;;;4390509;32;20073;-68
2022/05/15 01:23:15;;;;;;;3.83;2.20;;;;;;;;;;4377390;32;20147;-68
2022/05/15 01:25:42;;;;;;;3.40;1.77;;;;;;;;;;4403976;32;20078;-68
2022/05/15 01:28:12;;;;;;;3.10;2.10;;;;;;;;;;4389909;32;20086;-67
2022/05/15 01:30:42;;;;;;;2.55;1.80;;;;;;;;;;4378083;32;20173;-68
2022/05/15 01:33:09;;;;;;;6.57;2.08;;;;;;;;;;4377711;32;20213;-68
2022/05/15 01:35:36;;;;;;;3.60;2.10;;;;;;;;;;4390008;32;20165;-67
2022/05/15 01:38:04;;;;;;;8.50;2.37;;;;;;;;;;4377164;32;20074;-68
2022/05/15 01:40:31;;;;;;;2.22;1.92;;;;;;;;;;4389540;32;20092;-69
2022/05/15 01:42:59;;;;;;;4.15;2.10;;;;;;;;;;4403433;32;20077;-68
2022/05/15 01:45:26;;;;;;;6.37;2.00;;;;;;;;;;4403578;32;20471;-68
2022/05/15 01:47:52;;;;;;;4.32;1.75;;;;;;;;;;4403598;32;20103;-68
2022/05/15 01:50:19;;;;;;;3.15;2.10;;;;;;;;;;4389440;32;20424;-69
2022/05/15 01:52:46;;;;;;;3.95;2.40;;;;;;;;;;4386661;32;20094;-68
2022/05/15 01:55:13;;;;;;;3.40;1.90;;;;;;;;;;4393473;32;20115;-69
2022/05/15 01:57:40;;;;;;;4.53;2.00;;;;;;;;;;4379169;32;20540;-68
2022/05/15 02:00:10;;;;;;;3.60;2.03;;;;;;;;;;4379364;32;20102;-67
2022/05/15 02:02:39;;;;;;;4.10;1.92;;;;;;;;;;4379255;32;20078;-69
2022/05/15 02:05:07;;;;;;;3.90;2.12;;;;;;;;;;4379358;32;20086;-68
2022/05/15 02:07:34;;;;;;;2.97;1.90;;;;;;;;;;4379446;32;20153;-69
2022/05/15 02:10:01;;;;;;;3.17;2.08;;;;;;;;;;4366686;32;20450;-68
2022/05/15 02:12:28;;;;;;;8.00;2.60;;;;;;;;;;4354752;32;20085;-67
2022/05/15 02:14:55;;;;;;;4.30;1.87;;;;;;;;;;4379017;32;20076;-68
2022/05/15 02:17:21;;;;;;;5.53;1.85;;;;;;;;;;4379035;32;20153;-68
2022/05/15 02:19:48;;;;;;;3.53;2.00;;;;;;;;;;4379602;32;20166;-68
2022/05/15 02:22:15;;;;;;;3.45;1.67;;;;;;;;;;4366450;32;20154;-68
2022/05/15 02:24:41;;;;;;;5.45;1.98;;;;;;;;;;4379228;32;20094;-69
2022/05/15 02:27:08;;;;;;;5.10;2.00;;;;;;;;;;4379074;32;20157;-68
2022/05/15 02:29:35;;;;;;;7.65;2.00;;;;;;;;;;4393145;32;20081;-68
2022/05/15 02:32:02;;;;;;;3.80;2.40;;;;;;;;;;4366362;32;20078;-67
2022/05/15 02:34:29;;;;;;;3.65;2.28;;;;;;;;;;4378803;32;20233;-67
2022/05/15 02:36:55;;;;;;;4.55;2.53;;;;;;;;;;4393118;32;20068;-69
2022/05/15 02:39:22;;;;;;;3.62;2.00;;;;;;;;;;4379506;32;20230;-68
2022/05/15 02:41:48;;;;;;;2.10;1.90;;;;;;;;;;4379184;32;20085;-68
2022/05/15 02:44:15;;;;;;;3.47;1.77;;;;;;;;;;4393152;32;20100;-68
2022/05/15 02:46:42;;;;;;;3.50;2.00;;;;;;;;;;4378934;32;20145;-68
2022/05/15 02:51:54;;;;;;;6.35;2.40;;;;;;;;;;4393001;32;20061;-69
2022/05/15 02:54:21;;;;;;;5.62;1.90;;;;;;;;;;4392804;32;20148;-68
2022/05/15 02:56:47;;;;;;;3.00;2.00;;;;;;;;;;4366477;32;20073;-68
2022/05/15 02:59:14;;;;;;;2.33;1.73;;;;;;;;;;4378263;32;20445;-69
2022/05/15 03:01:40;;;;;;;2.87;1.90;;;;;;;;;;4354002;32;20145;-69
2022/05/15 03:04:07;;;;;;;2.85;2.00;;;;;;;;;;4365625;32;20529;-68
2022/05/15 03:06:34;;;;;;;3.42;2.33;;;;;;;;;;4392251;32;20080;-67
2022/05/15 03:09:00;;;;;;;4.15;2.12;;;;;;;;;;4378179;32;20497;-68
2022/05/15 03:11:28;;;;;;;3.30;1.98;;;;;;;;;;4379099;32;20076;-67
2022/05/15 03:13:55;;;;;;;3.65;2.05;;;;;;;;;;4392632;32;20515;-68
2022/05/15 03:16:22;;;;;;;4.10;2.10;;;;;;;;;;4392110;32;20534;-68
2022/05/15 03:18:51;;;;;;;4.28;2.00;;;;;;;;;;4378692;32;20090;-69
2022/05/15 03:21:30;;;;;;;3.87;1.83;;;;;;;;;;4365818;32;20088;-68
2022/05/15 03:24:11;;;;;;;3.15;2.10;;;;;;;;;;4380205;32;20101;-68
2022/05/15 03:26:42;;;;;;;3.30;2.17;;;;;;;;;;4365611;32;20085;-69
2022/05/15 03:29:10;;;;;;;3.53;2.00;;;;;;;;;;4378262;32;20165;-69
2022/05/15 03:31:38;;;;;;;5.00;2.25;;;;;;;;;;4392179;32;20511;-69
2022/05/15 03:34:07;;;;;;;2.87;2.15;;;;;;;;;;4365791;32;20164;-69
2022/05/15 03:36:34;;;;;;;3.53;1.87;;;;;;;;;;4392185;32;20519;-68
2022/05/15 03:39:00;;;;;;;3.37;2.10;;;;;;;;;;4365584;32;20100;-69
2022/05/15 03:41:27;;;;;;;5.15;2.08;;;;;;;;;;4377855;32;20074;-69
2022/05/15 03:43:54;;;;;;;3.75;1.83;;;;;;;;;;4378037;32;20088;-68
2022/05/15 03:46:21;;;;;;;4.62;1.95;;;;;;;;;;4377563;32;20534;-69
2022/05/15 03:48:48;;;;;;;3.78;2.10;;;;;;;;;;4377879;32;20070;-68
2022/05/15 03:51:16;;;;;;;5.15;1.95;;;;;;;;;;4377943;32;20157;-67
2022/05/15 03:54:04;;;;;;;2.77;1.93;;;;;;;;;;3857089;37;20070;-69
2022/05/15 03:56:49;;;;;;;4.35;2.10;;;;;;;;;;4393062;32;20629;-68
2022/05/15 03:59:24;;;;;;;3.37;2.22;;;;;;;;;;4407946;32;20145;-68
2022/05/15 04:01:51;;;;;;;2.65;1.77;;;;;;;;;;4405921;32;20070;-67
2022/05/15 04:04:18;;;;;;;4.03;2.17;;;;;;;;;;4405331;32;20519;-68
2022/05/15 04:06:45;;;;;;;4.28;2.05;;;;;;;;;;4417939;32;20526;-69
2022/05/15 04:09:12;;;;;;;5.25;1.90;;;;;;;;;;4418152;32;20096;-69
2022/05/15 04:11:39;;;;;;;4.00;2.03;;;;;;;;;;4418341;32;20156;-68
2022/05/15 04:14:06;;;;;;;5.50;2.20;;;;;;;;;;4418324;32;20440;-67
2022/05/15 04:16:33;;;;;;;3.92;2.45;;;;;;;;;;4405785;32;20488;-68
2022/05/15 04:19:01;;;;;;;3.30;2.00;;;;;;;;;;4405275;32;20499;-69
2022/05/15 04:21:30;;;;;;;3.60;1.87;;;;;;;;;;4418378;32;20069;-69
2022/05/15 04:23:56;;;;;;;3.67;2.10;;;;;;;;;;4418093;32;20162;-68
2022/05/15 04:26:23;;;;;;;5.82;2.03;;;;;;;;;;4419336;32;20180;-68
2022/05/15 04:28:49;;;;;;;3.35;2.03;;;;;;;;;;4417968;32;20069;-69
2022/05/15 04:31:16;;;;;;;6.12;2.22;;;;;;;;;;4417830;32;20076;-68
2022/05/15 04:33:42;;;;;;;6.53;2.20;;;;;;;;;;4419145;32;20535;-68
2022/05/15 04:36:09;;;;;;;3.17;1.90;;;;;;;;;;4419037;32;20077;-69
2022/05/15 04:38:36;;;;;;;4.57;2.25;;;;;;;;;;4417722;32;20141;-68
2022/05/15 04:41:02;;;;;;;6.07;2.12;;;;;;;;;;4417643;32;20496;-68
2022/05/15 04:43:29;;;;;;;5.43;2.15;;;;;;;;;;4419012;32;20145;-69
2022/05/15 04:45:55;;;;;;;3.53;2.08;;;;;;;;;;4417320;32;20073;-67
2022/05/15 04:48:22;;;;;;;3.00;1.80;;;;;;;;;;4404776;32;20080;-69
2022/05/15 04:50:49;;;;;;;4.43;2.20;;;;;;;;;;4417974;32;20080;-69
2022/05/15 04:53:15;;;;;;;2.85;1.95;;;;;;;;;;4419240;32;20077;-69
2022/05/15 04:55:42;;;;;;;2.70;2.00;;;;;;;;;;4418460;32;20153;-68
2022/05/15 04:58:08;;;;;;;3.85;2.30;;;;;;;;;;4418923;32;20069;-69
2022/05/15 05:00:35;;;;;;;4.05;2.15;;;;;;;;;;4417420;32;20429;-68
2022/05/15 05:03:02;;;;;;;3.30;2.03;;;;;;;;;;4418849;32;20097;-68
2022/05/15 05:05:28;;;;;;;3.72;1.90;;;;;;;;;;4408690;32;20073;-66
2022/05/15 05:07:55;;;;;;;5.18;2.08;;;;;;;;;;4406826;32;20462;-68
2022/05/15 05:10:22;;;;;;;3.62;1.85;;;;;;;;;;4394515;32;20445;-67
2022/05/15 05:12:49;;;;;;;4.87;2.00;;;;;;;;;;4407842;32;20157;-67
2022/05/15 05:15:16;;;;;;;4.18;2.30;;;;;;;;;;4394404;32;20160;-69
2022/05/15 05:17:43;;;;;;;3.40;2.03;;;;;;;;;;4395055;32;20099;-68
2022/05/15 05:20:11;;;;;;;4.18;2.12;;;;;;;;;;4406827;32;20100;-70
2022/05/15 05:22:38;;;;;;;2.85;1.60;;;;;;;;;;4406947;32;20101;-67
2022/05/15 05:25:05;;;;;;;4.12;2.08;;;;;;;;;;4407012;32;20074;-68
2022/05/15 05:27:31;;;;;;;3.97;1.90;;;;;;;;;;4406951;32;20073;-67
2022/05/15 05:29:58;;;;;;;3.28;1.98;;;;;;;;;;4407074;32;20077;-68
2022/05/15 05:32:25;;;;;;;3.55;1.90;;;;;;;;;;4394997;32;20161;-69
2022/05/15 05:34:51;;;;;;;4.20;2.22;;;;;;;;;;4394478;32;20081;-69
2022/05/15 05:37:18;;;;;;;3.45;2.10;;;;;;;;;;4408335;32;20103;-68
2022/05/15 05:39:45;;;;;;;4.10;2.67;;;;;;;;;;4394137;32;20161;-68
2022/05/15 05:42:12;;;;;;;6.35;2.15;;;;;;;;;;4408182;32;20081;-68
2022/05/15 05:44:38;;;;;;;2.35;1.90;;;;;;;;;;4408086;32;20086;-69
2022/05/15 05:47:05;;;;;;;3.50;2.20;;;;;;;;;;4406860;32;20100;-69
2022/05/15 05:49:32;;;;;;;4.87;2.05;;;;;;;;;;4406696;32;20160;-67
2022/05/15 05:51:59;;;;;;;3.33;2.10;;;;;;;;;;4407774;32;20538;-68
2022/05/15 05:54:26;;;;;;;2.90;2.03;;;;;;;;;;4408603;32;20576;-69
2022/05/15 05:56:52;;;;;;;7.03;2.22;;;;;;;;;;4406504;32;20069;-67
2022/05/15 05:59:19;;;;;;;4.53;2.30;;;;;;;;;;4407070;32;20073;-67
2022/05/15 06:01:45;;;;;;;3.72;2.28;;;;;;;;;;4406564;32;20093;-67
2022/05/15 06:06:57;;;;;;;2.75;1.92;;;;;;;;;;4395659;32;20080;-69
2022/05/15 06:09:24;;;;;;;3.30;2.12;;;;;;;;;;4381021;32;20180;-69
2022/05/15 06:11:51;;;;;;;3.67;2.25;;;;;;;;;;4407753;32;20080;-67
2022/05/15 06:14:17;;;;;;;3.55;1.90;;;;;;;;;;4406416;32;20081;-69
2022/05/15 06:16:44;;;;;;;4.30;2.10;;;;;;;;;;4392808;32;20157;-68
2022/05/15 06:19:10;;;;;;;4.50;2.15;;;;;;;;;;4407756;32;20157;-69
2022/05/15 06:21:37;;;;;;;3.65;2.20;;;;;;;;;;4406304;32;20072;-67
2022/05/15 06:24:04;;;;;;;3.67;2.42;;;;;;;;;;4406090;32;20565;-70
2022/05/15 06:26:30;;;;;;;3.22;2.05;;;;;;;;;;4407651;32;20077;-66
2022/05/15 06:28:57;;;;;;;5.45;2.30;;;;;;;;;;4393324;32;20101;-67
2022/05/15 06:31:24;;;;;;;3.55;2.30;;;;;;;;;;4393559;32;20077;-66
2022/05/15 06:33:50;;;;;;;5.40;2.20;;;;;;;;;;4405899;32;20080;-68
2022/05/15 06:36:17;;;;;;;4.15;2.00;;;;;;;;;;4407214;32;20581;-67
2022/05/15 06:38:43;;;;;;;2.35;2.03;;;;;;;;;;4393492;32;20159;-67
2022/05/15 06:41:11;;;;;;;3.75;2.30;;;;;;;;;;4380390;32;20463;-68
2022/05/15 06:43:38;;;;;;;2.87;1.90;;;;;;;;;;4405615;32;20145;-67
2022/05/15 06:46:06;;;;;;;4.68;2.35;;;;;;;;;;4393117;32;20085;-67
2022/05/15 06:48:35;;;;;;;3.90;2.40;;;;;;;;;;4405638;32;20094;-68
2022/05/15 06:51:03;;;;;;;6.05;2.40;;;;;;;;;;4407336;32;20073;-67
2022/05/15 06:53:30;;;;;;;4.53;2.22;;;;;;;;;;4392590;32;20094;-67
2022/05/15 06:58:42;;;;;;;4.20;2.40;;;;;;;;;;4406139;32;20580;-67
2022/05/15 07:01:08;;;;;;;3.53;2.03;;;;;;;;;;4393019;32;20069;-67
2022/05/15 07:03:35;;;;;;;4.25;2.10;;;;;;;;;;4395382;32;20509;-68
2022/05/15 07:08:10;;;;;;;5.10;2.80;;;;;;;;;;3811180;37;20263;-69
2022/05/15 07:10:38;;;;;;;3.67;2.37;;;;;;;;;;4403631;32;20158;-67
2022/05/15 07:13:05;;;;;;;3.92;2.50;;;;;;;;;;4404495;32;20083;-67
2022/05/15 07:15:31;;;;;;;4.30;3.15;;;;;;;;;;4403084;32;20077;-68
2022/05/15 07:17:58;;;;;;;3.92;2.50;;;;;;;;;;4403070;32;20077;-70
2022/05/15 07:20:25;;;;;;;3.25;2.30;;;;;;;;;;4404252;32;20479;-68
2022/05/15 07:22:51;;;;;;;6.20;2.80;;;;;;;;;;4402934;32;20077;-70
2022/05/15 07:25:18;;;;;;;2.62;1.95;;;;;;;;;;4390471;32;20061;-70
2022/05/15 07:27:44;;;;;;;4.25;2.50;;;;;;;;;;4375728;32;20085;-68
2022/05/15 07:30:12;;;;;;;4.72;2.37;;;;;;;;;;4388964;32;20161;-68
2022/05/15 07:32:38;;;;;;;4.85;2.20;;;;;;;;;;4387731;32;20086;-67
2022/05/15 07:35:06;;;;;;;4.65;2.35;;;;;;;;;;4388147;32;20108;-69
2022/05/15 07:37:32;;;;;;;4.35;2.28;;;;;;;;;;4375351;32;20069;-67
2022/05/15 07:39:59;;;;;;;5.45;2.60;;;;;;;;;;4389162;32;20467;-68
2022/05/15 07:42:25;;;;;;;3.45;2.55;;;;;;;;;;4387826;32;20069;-66
2022/05/15 07:44:57;;;;;;;4.00;2.37;;;;;;;;;;4387419;32;20092;-69
2022/05/15 07:47:25;;;;;;;3.22;2.37;;;;;;;;;;4387257;32;20066;-68
2022/05/15 07:49:51;;;;;;;5.30;2.22;;;;;;;;;;4375225;32;20169;-68
2022/05/15 07:52:19;;;;;;;5.10;2.10;;;;;;;;;;4387669;32;20092;-68
2022/05/15 07:54:45;;;;;;;4.82;2.30;;;;;;;;;;4375838;32;20121;-68
2022/05/15 07:57:12;;;;;;;4.35;2.15;;;;;;;;;;4387593;32;20081;-67
2022/05/15 07:59:38;;;;;;;2.53;1.62;;;;;;;;;;4388437;32;20134;-68
2022/05/15 08:02:08;;;;;;;2.92;2.10;;;;;;;;;;4388763;32;20089;-68
2022/05/15 08:08:00;;;;;;;4.47;2.30;;;;;;;;;;4375085;32;20062;-69
2022/05/15 08:10:08;;;;;;;3.45;2.17;;;;;;;;;;4388598;32;20105;-69
2022/05/15 08:12:35;;;;;;;6.10;2.37;;;;;;;;;;4387077;32;20062;-67
2022/05/15 08:15:02;;;;;;;3.08;2.10;;;;;;;;;;4362664;32;20094;-67
2022/05/15 08:17:29;;;;;;;4.93;2.33;;;;;;;;;;4385154;32;20512;-69
2022/05/15 08:25:26;;;;;;;3.33;2.40;;;;;;;;;;4378876;32;20162;-68
2022/05/15 08:27:54;;;;;;;3.95;2.30;;;;;;;;;;4378194;32;20130;-69
2022/05/15 08:30:20;;;;;;;3.37;2.17;;;;;;;;;;4376717;32;20093;-68
2022/05/15 08:32:47;;;;;;;4.20;2.17;;;;;;;;;;4365029;32;20101;-67
2022/05/15 08:35:14;;;;;;;5.35;2.42;;;;;;;;;;4363231;32;20074;-68
2022/05/15 08:37:42;;;;;;;6.30;2.80;;;;;;;;;;4376909;32;20081;-69
2022/05/15 08:40:09;;;;;;;2.33;2.12;;;;;;;;;;4378224;32;20157;-68
2022/05/15 08:42:39;;;;;;;2.67;2.20;;;;;;;;;;4376759;32;20104;-69
2022/05/15 08:45:15;;;;;;;3.60;2.30;;;;;;;;;;4378216;32;20070;-69
2022/05/15 08:47:46;;;;;;;3.90;2.60;;;;;;;;;;4376622;32;20096;-69
2022/05/15 08:50:17;;;;;;;4.93;2.33;;;;;;;;;;4364126;32;20172;-67
2022/05/15 08:52:53;;;;;;;3.45;2.25;;;;;;;;;;4364484;32;20512;-70
2022/05/15 08:55:38;;;;;;;4.65;2.20;;;;;;;;;;4364525;32;20074;-69
2022/05/15 08:58:12;;;;;;;3.97;2.20;;;;;;;;;;4363745;32;20525;-68
2022/05/15 09:00:46;;;;;;;3.60;2.40;;;;;;;;;;4364249;32;20077;-68
2022/05/15 09:03:17;;;;;;;5.85;2.60;;;;;;;;;;4377513;32;20150;-68
2022/05/15 09:06:03;;;;;;;4.00;2.12;;;;;;;;;;4376343;32;20169;-69
2022/05/15 09:08:38;;;;;;;5.62;2.37;;;;;;;;;;4376412;32;20074;-68
2022/05/15 09:11:09;;;;;;;6.62;2.28;;;;;;;;;;4376427;32;20070;-68
2022/05/15 09:13:41;;;;;;;3.45;2.20;;;;;;;;;;4364419;32;20069;-67
2022/05/15 09:16:19;;;;;;;5.18;2.12;;;;;;;;;;4378352;32;20241;-68
2022/05/15 09:18:46;;;;;;;4.55;2.45;;;;;;;;;;4366328;32;20070;-68
2022/05/15 09:21:14;;;;;;;5.85;2.50;;;;;;;;;;4377259;32;20495;-69
2022/05/15 09:23:55;;;;;;;5.18;2.78;;;;;;;;;;4376425;32;20109;-69
2022/05/15 09:26:28;;;;;;;4.53;2.67;;;;;;;;;;4363447;32;20080;-67
2022/05/15 09:28:58;;;;;;;4.75;2.80;;;;;;;;;;4376060;32;20072;-68
2022/05/15 09:31:46;;;;;;;4.28;2.50;;;;;;;;;;4362990;32;20101;-67
2022/05/15 09:34:26;;;;;;;3.70;2.90;;;;;;;;;;4376178;32;20075;-67
2022/05/15 09:38:27;;;;;;;6.45;3.25;;;;;;;;;;4376060;32;20062;-69
2022/05/15 09:39:44;;;;;;;5.68;3.25;;;;;;;;;;4376366;32;20593;-67
2022/05/15 09:45:08;;;;;;;4.25;3.10;;;;;;;;;;4375437;32;20507;-67
2022/05/15 09:47:37;;;;;;;6.80;3.20;;;;;;;;;;4375458;32;20110;-68
2022/05/15 09:50:06;;;;;;;4.00;2.62;;;;;;;;;;4375791;32;20519;-68
2022/05/15 09:52:41;;;;;;;5.28;3.10;;;;;;;;;;4376001;32;20086;-68
2022/05/15 09:55:21;;;;;;;6.00;3.23;;;;;;;;;;4376190;32;20165;-66
2022/05/15 09:58:17;;;;;;;6.30;2.80;;;;;;;;;;4363351;32;20507;-68
2022/05/15 10:00:43;;;;;;;6.18;2.78;;;;;;;;;;4363759;32;20143;-68
2022/05/15 10:03:22;;;;;;;6.18;2.87;;;;;;;;;;4363395;32;20078;-69
2022/05/15 10:06:08;;;;;;;10.23;3.60;;;;;;;;;;4375527;32;20100;-67
2022/05/15 10:08:36;;;;;;;5.43;2.92;;;;;;;;;;4376674;32;20513;-69
2022/05/15 10:11:07;;;;;;;4.87;3.15;;;;;;;;;;4375029;32;20085;-69
2022/05/15 10:13:50;;;;;;;6.87;3.00;;;;;;;;;;4375832;32;20074;-68
2022/05/15 10:16:34;;;;;;;5.70;3.20;;;;;;;;;;4375167;32;20461;-69
2022/05/15 10:19:02;;;;;;;7.07;2.97;;;;;;;;;;4375449;32;20077;-69
2022/05/15 10:21:50;;;;;;;5.40;2.80;;;;;;;;;;4375279;32;20141;-67
2022/05/15 10:24:29;;;;;;;5.05;3.30;;;;;;;;;;4375953;32;20081;-69
2022/05/15 10:27:17;;;;;;;4.65;2.35;;;;;;;;;;4375364;32;20081;-70
2022/05/15 10:30:02;;;;;;;6.03;2.97;;;;;;;;;;4362789;32;20105;-69
2022/05/15 10:32:50;;;;;;;5.53;2.83;;;;;;;;;;4376755;32;20182;-68
2022/05/15 10:35:19;;;;;;;3.95;3.00;;;;;;;;;;4362984;32;20081;-69
2022/05/15 10:38:01;;;;;;;7.28;2.80;;;;;;;;;;4375130;32;20457;-68
2022/05/15 10:41:02;;;;;;;4.43;3.03;;;;;;;;;;4362735;32;20173;-69
2022/05/15 10:43:41;;;;;;;6.50;2.83;;;;;;;;;;4376625;32;20090;-69
2022/05/15 10:46:19;;;;;;;6.10;2.78;;;;;;;;;;4374861;32;20593;-69
2022/05/15 10:49:44;;;;;;;5.25;2.80;;;;;;;;;;4376491;32;20151;-69
2022/05/15 10:52:41;;;;;;;4.80;2.70;;;;;;;;;;4368850;32;20090;-68
2022/05/15 10:58:26;;;;;;;3.03;2.55;;;;;;;;;;4376206;32;20081;-70
2022/05/15 11:01:22;;;;;;;4.35;2.55;;;;;;;;;;4375141;32;20167;-69
2022/05/15 11:04:37;;;;;;;5.00;2.60;;;;;;;;;;4362569;32;20066;-67
2022/05/15 11:07:21;;;;;;;5.05;2.60;;;;;;;;;;4329257;33;20095;-67
2022/05/15 11:10:12;;;;;;;4.80;2.67;;;;;;;;;;4317946;33;20087;-67
2022/05/15 11:12:54;;;;;;;7.85;2.85;;;;;;;;;;4365280;32;20530;-68
2022/05/15 11:15:30;;;;;;;6.18;3.20;;;;;;;;;;4375020;32;20096;-69
2022/05/15 11:18:20;;;;;;;3.45;2.60;;;;;;;;;;4375135;32;20074;-66
2022/05/15 11:20:50;;;;;;;4.50;2.50;;;;;;;;;;4375068;32;20082;-69
2022/05/15 11:23:22;;;;;;;6.43;2.50;;;;;;;;;;4362220;32;20074;-67
2022/05/15 11:25:53;;;;;;;6.45;2.53;;;;;;;;;;4375048;32;20093;-67
2022/05/15 11:28:30;;;;;;;5.53;3.00;;;;;;;;;;4375233;32;20059;-69
2022/05/15 11:31:04;;;;;;;3.37;2.60;;;;;;;;;;4363207;32;20539;-68
2022/05/15 11:33:53;;;;;;;5.57;2.42;;;;;;;;;;4376246;32;20127;-69
2022/05/15 11:36:22;;;;;;;7.80;2.55;;;;;;;;;;4375642;32;20083;-69
2022/05/15 11:39:11;;;;;;;3.58;2.40;;;;;;;;;;4376479;32;20084;-68
2022/05/15 11:41:40;;;;;;;4.20;2.53;;;;;;;;;;4378356;32;20078;-69
2022/05/15 11:44:18;;;;;;;3.55;2.00;;;;;;;;;;4376465;32;20082;-67
2022/05/15 11:46:47;;;;;;;5.30;2.30;;;;;;;;;;4376000;32;20078;-69
2022/05/15 11:49:34;;;;;;;3.15;2.40;;;;;;;;;;4374917;32;20078;-69
2022/05/15 11:52:08;;;;;;;2.92;2.30;;;;;;;;;;4374698;32;20090;-68
2022/05/15 11:54:40;;;;;;;3.22;2.10;;;;;;;;;;4378149;32;20072;-69
2022/05/15 11:57:10;;;;;;;2.97;1.95;;;;;;;;;;4364914;32;20149;-69
2022/05/15 11:59:47;;;;;;;3.58;2.15;;;;;;;;;;4378722;32;20109;-69
2022/05/15 12:02:29;;;;;;;4.95;2.20;;;;;;;;;;4377978;32;20092;-68
2022/05/15 12:05:02;;;;;;;2.20;2.00;;;;;;;;;;4377583;32;20080;-69
2022/05/15 12:07:56;;;;;;;3.53;2.22;;;;;;;;;;4377311;32;20082;-68
2022/05/15 12:10:43;;;;;;;3.08;2.03;;;;;;;;;;4362916;32;20171;-68
2022/05/15 12:13:30;;;;;;;4.47;2.33;;;;;;;;;;4365049;32;20531;-68
2022/05/15 12:16:12;;;;;;;;;;;;;;;;;;4377287;32;20063;-67
2022/05/15 12:18:39;;;;;;;6.60;2.40;;;;;;;;;;4377657;32;19964;-67
2022/05/15 12:21:07;;;;;;;3.78;1.98;;;;;;;;;;4377196;32;20085;-67
2022/05/15 12:23:36;;;;;;;3.33;2.20;;;;;;;;;;4364588;32;20082;-66
2022/05/15 12:26:32;;;;;;;7.60;2.60;;;;;;;;;;4376815;32;20140;-68
2022/05/15 12:28:58;;;;;;;3.92;2.00;;;;;;;;;;4364649;32;20079;-67
2022/05/15 12:31:31;;;;;;;4.55;1.90;;;;;;;;;;4378453;32;20581;-68
2022/05/15 12:34:36;;;;;;;3.47;2.35;;;;;;;;;;4377189;32;20077;-67
2022/05/15 12:37:08;;;;;;;2.85;2.05;;;;;;;;;;4352350;32;20520;-67
2022/05/15 12:39:41;;;;;;;2.72;2.10;;;;;;;;;;4376899;32;20088;-67
2022/05/15 12:42:16;;;;;;;2.25;1.73;;;;;;;;;;4364641;32;20077;-67
2022/05/15 12:44:43;;;;;;;3.20;2.00;;;;;;;;;;4364593;32;20153;-68
2022/05/15 12:47:21;;;;;;;2.92;2.12;;;;;;;;;;4377648;32;20074;-67
2022/05/15 12:49:47;;;;;;;2.37;1.80;;;;;;;;;;4376426;32;20610;-68
2022/05/15 12:52:30;;;;;;;2.55;2.10;;;;;;;;;;4376623;32;20452;-68
2022/05/15 12:55:11;;;;;;;4.35;1.98;;;;;;;;;;4376874;32;20527;-69
2022/05/15 12:57:49;;;;;;;2.65;1.92;;;;;;;;;;4376532;32;20089;-67
2022/05/15 13:00:18;;;;;;;3.00;2.28;;;;;;;;;;4364469;32;20162;-68
2022/05/15 13:02:47;;;;;;;2.87;2.05;;;;;;;;;;4377021;32;20096;-68
2022/05/15 13:05:38;;;;;;;2.58;2.03;;;;;;;;;;4364540;32;20078;-68
2022/05/15 13:08:07;;;;;;;2.42;2.10;;;;;;;;;;4375855;32;20174;-70
2022/05/15 13:10:36;;;;;;;6.28;2.25;;;;;;;;;;4363453;32;20600;-69
2022/05/15 13:13:34;;;;;;;2.87;1.90;;;;;;;;;;4364038;32;20082;-69
2022/05/15 13:16:01;;;;;;;5.05;2.05;;;;;;;;;;4364053;32;20074;-68
2022/05/15 13:18:35;;;;;;;2.33;1.90;;;;;;;;;;4376214;32;20086;-69
2022/05/15 13:21:04;;;;;;;4.35;2.20;;;;;;;;;;4378177;32;20081;-68
2022/05/15 13:23:43;;;;;;;2.40;2.00;;;;;;;;;;4376491;32;20153;-67
2022/05/15 13:26:19;;;;;;;2.90;2.65;;;;;;;;;;4375939;32;20583;-69
2022/05/15 13:28:45;;;;;;;2.45;1.77;;;;;;;;;;4377353;32;20149;-69
2022/05/15 13:31:13;;;;;;;2.28;1.80;;;;;;;;;;4351062;32;20185;-69
2022/05/15 13:33:43;;;;;;;2.58;1.75;;;;;;;;;;4376193;32;20139;-68
2022/05/15 13:36:14;;;;;;;4.35;2.40;;;;;;;;;;4376744;32;20082;-68
2022/05/15 13:44:15;;;;;;;3.97;2.37;;;;;;;;;;4376858;32;20070;-68
2022/05/15 13:47:02;;;;;;;4.00;2.15;;;;;;;;;;4379245;32;20069;-67
2022/05/15 13:49:43;;;;;;;4.97;2.10;;;;;;;;;;4379477;32;20066;-68
2022/05/15 13:52:32;;;;;;;2.72;1.95;;;;;;;;;;4377979;32;20074;-68
2022/05/15 13:55:03;;;;;;;4.05;2.03;;;;;;;;;;4375848;32;20073;-69
2022/05/15 13:57:30;;;;;;;4.03;2.10;;;;;;;;;;4375985;32;20159;-69
2022/05/15 13:59:57;;;;;;;3.62;1.92;;;;;;;;;;4363359;32;20163;-67
2022/05/15 14:02:31;;;;;;;3.17;1.90;;;;;;;;;;4377349;32;20078;-67
2022/05/15 14:04:58;;;;;;;3.72;2.87;;;;;;;;;;4375746;32;20538;-67
2022/05/15 14:07:31;;;;;;;4.12;2.00;;;;;;;;;;4377149;32;20074;-69
2022/05/15 14:10:20;;;;;;;3.85;2.50;;;;;;;;;;4375594;32;20066;-67
2022/05/15 14:12:54;;;;;;;3.65;2.12;;;;;;;;;;4375490;32;20116;-69
2022/05/15 14:15:51;;;;;;;4.93;2.10;;;;;;;;;;4377561;32;20085;-69
2022/05/15 14:18:36;;;;;;;2.08;1.80;;;;;;;;;;4375357;32;20077;-69
2022/05/15 14:21:15;;;;;;;2.72;2.30;;;;;;;;;;4375695;32;20538;-67
2022/05/15 14:23:42;;;;;;;6.22;1.95;;;;;;;;;;4376782;32;20089;-69
2022/05/15 14:26:10;;;;;;;2.97;2.00;;;;;;;;;;4362698;32;20130;-69
2022/05/15 14:28:39;;;;;;;3.10;1.98;;;;;;;;;;4362746;32;20077;-69
2022/05/15 14:31:08;;;;;;;3.35;2.00;;;;;;;;;;4375172;32;20143;-68
2022/05/15 14:33:35;;;;;;;2.78;1.90;;;;;;;;;;4362771;32;20077;-69
2022/05/15 14:36:11;;;;;;;2.78;2.10;;;;;;;;;;4375633;32;20138;-70
2022/05/15 14:38:38;;;;;;;3.70;1.77;;;;;;;;;;4363376;32;20186;-70
2022/05/15 14:41:05;;;;;;;5.15;2.17;;;;;;;;;;4376924;32;20069;-67
2022/05/15 14:43:35;;;;;;;5.60;2.08;;;;;;;;;;4362990;32;20157;-69
2022/05/15 14:46:06;;;;;;;3.80;1.95;;;;;;;;;;4362945;32;20082;-68
2022/05/15 14:48:39;;;;;;;4.00;2.00;;;;;;;;;;4375667;32;20501;-70
2022/05/15 14:51:12;;;;;;;3.08;2.08;;;;;;;;;;4375432;32;20514;-67
2022/05/15 14:53:39;;;;;;;4.57;2.05;;;;;;;;;;4374753;32;20082;-68
2022/05/15 14:56:09;;;;;;;5.68;2.62;;;;;;;;;;4376126;32;20081;-69
2022/05/15 14:58:56;;;;;;;2.50;2.20;;;;;;;;;;4375094;32;20077;-68
2022/05/15 15:01:24;;;;;;;3.65;2.12;;;;;;;;;;4376370;32;20070;-67
2022/05/15 15:03:51;;;;;;;3.58;2.12;;;;;;;;;;4362220;32;20082;-69
2022/05/15 15:06:18;;;;;;;2.12;1.85;;;;;;;;;;4374374;32;20534;-70
2022/05/15 15:08:45;;;;;;;3.90;2.20;;;;;;;;;;4376280;32;20077;-68
2022/05/15 15:11:22;;;;;;;3.78;2.00;;;;;;;;;;4374477;32;20208;-69
2022/05/15 15:13:53;;;;;;;2.90;2.10;;;;;;;;;;4362097;32;20082;-70
2022/05/15 15:16:25;;;;;;;3.35;1.87;;;;;;;;;;4375263;32;20089;-68
2022/05/15 15:18:53;;;;;;;3.15;1.83;;;;;;;;;;4374393;32;20168;-69
2022/05/15 15:21:20;;;;;;;3.92;2.03;;;;;;;;;;4374519;32;20499;-68
2022/05/15 15:23:47;;;;;;;3.03;1.98;;;;;;;;;;4362758;32;20075;-68
2022/05/15 15:26:15;;;;;;;4.40;2.10;;;;;;;;;;4374717;32;20147;-68
2022/05/15 15:28:42;;;;;;;3.08;2.20;;;;;;;;;;4363685;32;20077;-69
2022/05/15 15:31:09;;;;;;;2.85;1.83;;;;;;;;;;4377941;32;20218;-68
2022/05/15 15:33:37;;;;;;;2.12;1.65;;;;;;;;;;4378845;32;20077;-69
2022/05/15 15:36:04;;;;;;;3.05;1.80;;;;;;;;;;4365209;32;20468;-69
2022/05/15 15:38:31;;;;;;;3.92;2.10;;;;;;;;;;4365024;32;20086;-68
2022/05/15 15:41:02;;;;;;;3.25;1.90;;;;;;;;;;4377554;32;20154;-69